sensor_id;sensor_type;location;lat;lon;timestamp;temperature;humidity
5041;DHT22;2539;52.568;13.364;2023-07-30T00:02:05;17.40;99.90
5041;DHT22;2539;52.568;13.364;2023-07-30T00:04:31;17.40;99.90
5041;DHT22;2539;52.568;13.364;2023-07-30T00:06:57;17.30;99.90
5041;DHT22;2539;52.568;13.364;2023-07-30T00:09:23;17.30;99.90
5041;DHT22;2539;52.568;13.364;2023-07-30T00:11:50;17.30;99.90
5041;DHT22;2539;52.568;13.364;2023-07-30T00:14:16;17.30;99.90
5041;DHT22;2539;52.568;13.364;2023-07-30T00:16:49;17.20;99.90
5041;DHT22;2539;52.568;13.364;2023-07-30T00:19:15;17.20;99.90
5041;DHT22;2539;52.568;13.364;2023-07-30T00:21:47;17.20;99.90
5041;DHT22;2539;52.568;13.364;2023-07-30T00:24:13;17.20;99.90
5041;DHT22;2539;52.568;13.364;2023-07-30T00:26:40;17.10;99.90
5041;DHT22;2539;52.568;13.364;2023-07-30T00:29:06;17.10;99.90
5041;DHT22;2539;52.568;13.364;2023-07-30T00:31:33;17.10;99.90
5041;DHT22;2539;52.568;13.364;2023-07-30T00:33:59;17.10;99.90
5041;DHT22;2539;52.568;13.364;2023-07-30T00:36:25;17.00;99.90
5041;DHT22;2539;52.568;13.364;2023-07-30T00:38:51;17.00;99.90
5041;DHT22;2539;52.568;13.364;2023-07-30T00:41:18;17.00;99.90
5041;DHT22;2539;52.568;13.364;2023-07-30T00:43:44;17.00;99.90
5041;DHT22;2539;52.568;13.364;2023-07-30T00:46:11;16.90;99.90
5041;DHT22;2539;52.568;13.364;2023-07-30T00:48:38;16.90;99.90
5041;DHT22;2539;52.568;13.364;2023-07-30T00:51:05;16.90;99.90
5041;DHT22;2539;52.568;13.364;2023-07-30T00:53:32;16.80;99.90
5041;DHT22;2539;52.568;13.364;2023-07-30T00:55:58;16.80;99.90
5041;DHT22;2539;52.568;13.364;2023-07-30T00:58:24;16.80;99.90
5041;DHT22;2539;52.568;13.364;2023-07-30T01:00:52;16.70;99.90
5041;DHT22;2539;52.568;13.364;2023-07-30T01:03:19;16.70;99.90
5041;DHT22;2539;52.568;13.364;2023-07-30T01:05:45;16.70;99.90
5041;DHT22;2539;52.568;13.364;2023-07-30T01:08:12;16.70;99.90
5041;DHT22;2539;52.568;13.364;2023-07-30T01:10:39;16.70;99.90
5041;DHT22;2539;52.568;13.364;2023-07-30T01:13:07;16.70;99.90
5041;DHT22;2539;52.568;13.364;2023-07-30T01:15:34;16.70;99.90
5041;DHT22;2539;52.568;13.364;2023-07-30T01:18:01;16.60;99.90
5041;DHT22;2539;52.568;13.364;2023-07-30T01:20:31;16.60;99.90
5041;DHT22;2539;52.568;13.364;2023-07-30T01:23:00;16.60;99.90
5041;DHT22;2539;52.568;13.364;2023-07-30T01:25:35;16.60;99.90
5041;DHT22;2539;52.568;13.364;2023-07-30T01:28:04;16.60;99.90
5041;DHT22;2539;52.568;13.364;2023-07-30T01:30:38;16.50;99.90
5041;DHT22;2539;52.568;13.364;2023-07-30T01:33:07;16.50;99.90
5041;DHT22;2539;52.568;13.364;2023-07-30T01:35:35;16.50;99.90
5041;DHT22;2539;52.568;13.364;2023-07-30T01:38:02;16.50;99.90
5041;DHT22;2539;52.568;13.364;2023-07-30T01:40:32;16.50;99.90
5041;DHT22;2539;52.568;13.364;2023-07-30T01:42:59;16.40;99.90
5041;DHT22;2539;52.568;13.364;2023-07-30T01:45:25;16.40;99.90
5041;DHT22;2539;52.568;13.364;2023-07-30T01:47:51;16.40;99.90
5041;DHT22;2539;52.568;13.364;2023-07-30T01:50:18;16.40;99.90
5041;DHT22;2539;52.568;13.364;2023-07-30T01:52:44;16.40;99.90
5041;DHT22;2539;52.568;13.364;2023-07-30T01:55:10;16.40;99.90
5041;DHT22;2539;52.568;13.364;2023-07-30T01:57:37;16.40;99.90
5041;DHT22;2539;52.568;13.364;2023-07-30T02:00:03;16.40;99.90
5041;DHT22;2539;52.568;13.364;2023-07-30T02:02:30;16.40;99.90
5041;DHT22;2539;52.568;13.364;2023-07-30T02:04:56;16.30;99.90
5041;DHT22;2539;52.568;13.364;2023-07-30T02:07:22;16.40;99.90
5041;DHT22;2539;52.568;13.364;2023-07-30T02:09:48;16.30;99.90
5041;DHT22;2539;52.568;13.364;2023-07-30T02:12:15;16.20;99.90
5041;DHT22;2539;52.568;13.364;2023-07-30T02:14:41;16.20;99.90
5041;DHT22;2539;52.568;13.364;2023-07-30T02:17:07;16.20;99.90
5041;DHT22;2539;52.568;13.364;2023-07-30T02:19:33;16.20;99.90
5041;DHT22;2539;52.568;13.364;2023-07-30T02:22:00;16.10;99.90
5041;DHT22;2539;52.568;13.364;2023-07-30T02:24:26;16.10;99.90
5041;DHT22;2539;52.568;13.364;2023-07-30T02:26:52;16.10;99.90
5041;DHT22;2539;52.568;13.364;2023-07-30T02:29:18;16.20;99.90
5041;DHT22;2539;52.568;13.364;2023-07-30T02:31:43;16.10;99.90
5041;DHT22;2539;52.568;13.364;2023-07-30T02:34:09;16.00;99.90
5041;DHT22;2539;52.568;13.364;2023-07-30T02:36:35;16.10;99.90
5041;DHT22;2539;52.568;13.364;2023-07-30T02:39:02;16.00;99.90
5041;DHT22;2539;52.568;13.364;2023-07-30T02:41:28;16.00;99.90
5041;DHT22;2539;52.568;13.364;2023-07-30T02:43:55;16.10;99.90
5041;DHT22;2539;52.568;13.364;2023-07-30T02:46:21;16.10;99.90
5041;DHT22;2539;52.568;13.364;2023-07-30T02:48:47;16.20;99.90
5041;DHT22;2539;52.568;13.364;2023-07-30T02:51:13;16.20;99.90
5041;DHT22;2539;52.568;13.364;2023-07-30T02:53:39;16.20;99.90
5041;DHT22;2539;52.568;13.364;2023-07-30T02:56:06;16.20;99.90
5041;DHT22;2539;52.568;13.364;2023-07-30T02:58:32;16.20;99.90
5041;DHT22;2539;52.568;13.364;2023-07-30T03:01:05;16.10;99.90
5041;DHT22;2539;52.568;13.364;2023-07-30T03:03:33;16.00;99.90
5041;DHT22;2539;52.568;13.364;2023-07-30T03:05:59;16.00;99.90
5041;DHT22;2539;52.568;13.364;2023-07-30T03:08:25;16.00;99.90
5041;DHT22;2539;52.568;13.364;2023-07-30T03:10:52;16.00;99.90
5041;DHT22;2539;52.568;13.364;2023-07-30T03:13:18;16.00;99.90
5041;DHT22;2539;52.568;13.364;2023-07-30T03:15:44;15.90;99.90
5041;DHT22;2539;52.568;13.364;2023-07-30T03:18:10;15.90;99.90
5041;DHT22;2539;52.568;13.364;2023-07-30T03:20:37;15.90;99.90
5041;DHT22;2539;52.568;13.364;2023-07-30T03:23:03;15.90;99.90
5041;DHT22;2539;52.568;13.364;2023-07-30T03:25:29;15.90;99.90
5041;DHT22;2539;52.568;13.364;2023-07-30T03:27:55;15.90;99.90
5041;DHT22;2539;52.568;13.364;2023-07-30T03:30:21;15.90;99.90
5041;DHT22;2539;52.568;13.364;2023-07-30T03:32:48;15.90;99.90
5041;DHT22;2539;52.568;13.364;2023-07-30T03:35:14;15.90;99.90
5041;DHT22;2539;52.568;13.364;2023-07-30T03:37:40;15.90;99.90
5041;DHT22;2539;52.568;13.364;2023-07-30T03:40:07;16.00;99.90
5041;DHT22;2539;52.568;13.364;2023-07-30T03:42:33;16.00;99.90
5041;DHT22;2539;52.568;13.364;2023-07-30T03:44:59;16.00;99.90
5041;DHT22;2539;52.568;13.364;2023-07-30T03:47:26;16.00;99.90
5041;DHT22;2539;52.568;13.364;2023-07-30T03:49:52;16.00;99.90
5041;DHT22;2539;52.568;13.364;2023-07-30T03:52:18;16.10;99.90
5041;DHT22;2539;52.568;13.364;2023-07-30T03:54:44;16.10;99.90
5041;DHT22;2539;52.568;13.364;2023-07-30T03:57:10;16.10;99.90
5041;DHT22;2539;52.568;13.364;2023-07-30T03:59:37;16.20;99.90
5041;DHT22;2539;52.568;13.364;2023-07-30T04:02:03;16.20;99.90
5041;DHT22;2539;52.568;13.364;2023-07-30T04:04:30;16.10;99.90
5041;DHT22;2539;52.568;13.364;2023-07-30T04:06:56;16.20;99.90
5041;DHT22;2539;52.568;13.364;2023-07-30T04:09:23;16.30;99.90
5041;DHT22;2539;52.568;13.364;2023-07-30T04:11:49;16.50;99.90
5041;DHT22;2539;52.568;13.364;2023-07-30T04:14:15;16.60;99.90
5041;DHT22;2539;52.568;13.364;2023-07-30T04:16:41;16.80;99.90
5041;DHT22;2539;52.568;13.364;2023-07-30T04:19:09;17.20;99.90
5041;DHT22;2539;52.568;13.364;2023-07-30T04:21:36;18.20;99.90
5041;DHT22;2539;52.568;13.364;2023-07-30T04:24:02;18.80;99.90
5041;DHT22;2539;52.568;13.364;2023-07-30T04:26:28;18.70;99.90
5041;DHT22;2539;52.568;13.364;2023-07-30T04:28:54;18.40;99.90
5041;DHT22;2539;52.568;13.364;2023-07-30T04:31:21;18.00;99.90
5041;DHT22;2539;52.568;13.364;2023-07-30T04:33:47;17.80;99.90
5041;DHT22;2539;52.568;13.364;2023-07-30T04:36:13;17.50;99.90
5041;DHT22;2539;52.568;13.364;2023-07-30T04:38:39;17.40;99.90
5041;DHT22;2539;52.568;13.364;2023-07-30T04:41:05;17.30;99.90
5041;DHT22;2539;52.568;13.364;2023-07-30T04:43:32;17.30;99.90
5041;DHT22;2539;52.568;13.364;2023-07-30T04:45:58;17.20;99.90
5041;DHT22;2539;52.568;13.364;2023-07-30T04:48:24;17.20;99.90
5041;DHT22;2539;52.568;13.364;2023-07-30T04:50:50;17.20;99.90
5041;DHT22;2539;52.568;13.364;2023-07-30T04:53:16;17.30;99.90
5041;DHT22;2539;52.568;13.364;2023-07-30T04:55:44;17.40;99.90
5041;DHT22;2539;52.568;13.364;2023-07-30T04:58:10;17.60;99.90
5041;DHT22;2539;52.568;13.364;2023-07-30T05:00:36;17.70;99.90
5041;DHT22;2539;52.568;13.364;2023-07-30T05:03:03;17.70;99.90
5041;DHT22;2539;52.568;13.364;2023-07-30T05:05:29;17.70;99.90
5041;DHT22;2539;52.568;13.364;2023-07-30T05:07:55;17.70;99.90
5041;DHT22;2539;52.568;13.364;2023-07-30T05:10:22;17.60;99.90
5041;DHT22;2539;52.568;13.364;2023-07-30T05:12:48;17.60;99.90
5041;DHT22;2539;52.568;13.364;2023-07-30T05:15:14;17.60;99.90
5041;DHT22;2539;52.568;13.364;2023-07-30T05:17:40;17.70;99.90
5041;DHT22;2539;52.568;13.364;2023-07-30T05:20:07;17.80;99.90
5041;DHT22;2539;52.568;13.364;2023-07-30T05:22:33;17.90;99.90
5041;DHT22;2539;52.568;13.364;2023-07-30T05:25:00;18.00;99.90
5041;DHT22;2539;52.568;13.364;2023-07-30T05:27:26;18.30;99.90
5041;DHT22;2539;52.568;13.364;2023-07-30T05:29:54;18.50;99.90
5041;DHT22;2539;52.568;13.364;2023-07-30T05:32:21;18.80;99.90
5041;DHT22;2539;52.568;13.364;2023-07-30T05:34:47;19.10;99.90
5041;DHT22;2539;52.568;13.364;2023-07-30T05:37:14;19.20;99.90
5041;DHT22;2539;52.568;13.364;2023-07-30T05:39:40;19.10;99.90
5041;DHT22;2539;52.568;13.364;2023-07-30T05:42:06;19.20;99.90
5041;DHT22;2539;52.568;13.364;2023-07-30T05:44:32;19.20;99.90
5041;DHT22;2539;52.568;13.364;2023-07-30T05:46:59;19.20;99.90
5041;DHT22;2539;52.568;13.364;2023-07-30T05:49:25;19.20;99.90
5041;DHT22;2539;52.568;13.364;2023-07-30T05:51:51;19.20;99.90
5041;DHT22;2539;52.568;13.364;2023-07-30T05:54:17;19.20;99.90
5041;DHT22;2539;52.568;13.364;2023-07-30T05:56:44;19.20;99.90
5041;DHT22;2539;52.568;13.364;2023-07-30T05:59:10;19.20;99.90
5041;DHT22;2539;52.568;13.364;2023-07-30T06:01:36;19.30;99.90
5041;DHT22;2539;52.568;13.364;2023-07-30T06:04:02;19.30;99.90
5041;DHT22;2539;52.568;13.364;2023-07-30T06:06:29;19.40;99.90
5041;DHT22;2539;52.568;13.364;2023-07-30T06:08:55;19.40;99.90
5041;DHT22;2539;52.568;13.364;2023-07-30T06:11:22;19.50;99.90
5041;DHT22;2539;52.568;13.364;2023-07-30T06:13:48;19.50;99.90
5041;DHT22;2539;52.568;13.364;2023-07-30T06:16:16;19.70;99.90
5041;DHT22;2539;52.568;13.364;2023-07-30T06:18:42;19.80;99.90
5041;DHT22;2539;52.568;13.364;2023-07-30T06:21:08;19.80;99.90
5041;DHT22;2539;52.568;13.364;2023-07-30T06:23:35;19.60;99.90
5041;DHT22;2539;52.568;13.364;2023-07-30T06:26:01;19.60;99.90
5041;DHT22;2539;52.568;13.364;2023-07-30T06:28:27;19.70;99.90
5041;DHT22;2539;52.568;13.364;2023-07-30T06:30:53;19.90;99.90
5041;DHT22;2539;52.568;13.364;2023-07-30T06:33:20;20.20;99.90
5041;DHT22;2539;52.568;13.364;2023-07-30T06:35:46;20.50;99.90
5041;DHT22;2539;52.568;13.364;2023-07-30T06:38:12;20.30;99.90
5041;DHT22;2539;52.568;13.364;2023-07-30T06:40:38;20.40;99.90
5041;DHT22;2539;52.568;13.364;2023-07-30T06:43:04;20.40;99.90
5041;DHT22;2539;52.568;13.364;2023-07-30T06:45:32;20.80;99.90
5041;DHT22;2539;52.568;13.364;2023-07-30T06:47:58;20.90;99.90
5041;DHT22;2539;52.568;13.364;2023-07-30T06:50:24;21.10;99.90
5041;DHT22;2539;52.568;13.364;2023-07-30T06:52:50;21.30;99.90
5041;DHT22;2539;52.568;13.364;2023-07-30T06:55:17;21.00;99.90
5041;DHT22;2539;52.568;13.364;2023-07-30T06:57:43;21.00;99.90
5041;DHT22;2539;52.568;13.364;2023-07-30T07:00:09;20.90;99.90
5041;DHT22;2539;52.568;13.364;2023-07-30T07:02:36;21.00;99.90
5041;DHT22;2539;52.568;13.364;2023-07-30T07:05:02;21.30;99.90
5041;DHT22;2539;52.568;13.364;2023-07-30T07:07:29;21.20;99.90
5041;DHT22;2539;52.568;13.364;2023-07-30T07:09:56;21.20;99.90
5041;DHT22;2539;52.568;13.364;2023-07-30T07:12:22;21.30;99.90
5041;DHT22;2539;52.568;13.364;2023-07-30T07:14:49;21.40;99.90
5041;DHT22;2539;52.568;13.364;2023-07-30T07:17:15;21.10;99.90
5041;DHT22;2539;52.568;13.364;2023-07-30T07:19:41;20.80;99.90
5041;DHT22;2539;52.568;13.364;2023-07-30T07:22:07;20.80;99.90
5041;DHT22;2539;52.568;13.364;2023-07-30T07:24:34;21.00;99.90
5041;DHT22;2539;52.568;13.364;2023-07-30T07:27:00;21.20;99.90
5041;DHT22;2539;52.568;13.364;2023-07-30T07:29:26;21.30;99.90
5041;DHT22;2539;52.568;13.364;2023-07-30T07:31:52;21.30;99.90
5041;DHT22;2539;52.568;13.364;2023-07-30T07:34:19;21.10;99.90
5041;DHT22;2539;52.568;13.364;2023-07-30T07:36:46;21.30;99.90
5041;DHT22;2539;52.568;13.364;2023-07-30T07:39:12;21.10;99.90
5041;DHT22;2539;52.568;13.364;2023-07-30T07:41:38;20.50;99.90
5041;DHT22;2539;52.568;13.364;2023-07-30T07:44:04;20.40;99.90
5041;DHT22;2539;52.568;13.364;2023-07-30T07:46:30;20.30;99.90
5041;DHT22;2539;52.568;13.364;2023-07-30T07:48:57;20.40;99.90
5041;DHT22;2539;52.568;13.364;2023-07-30T07:51:23;20.80;99.90
5041;DHT22;2539;52.568;13.364;2023-07-30T07:53:49;21.10;99.90
5041;DHT22;2539;52.568;13.364;2023-07-30T07:56:15;21.30;99.90
5041;DHT22;2539;52.568;13.364;2023-07-30T07:58:42;21.60;99.90
5041;DHT22;2539;52.568;13.364;2023-07-30T08:01:09;21.80;99.90
5041;DHT22;2539;52.568;13.364;2023-07-30T08:03:35;21.50;99.90
5041;DHT22;2539;52.568;13.364;2023-07-30T08:06:01;21.60;99.90
5041;DHT22;2539;52.568;13.364;2023-07-30T08:08:28;21.30;99.90
5041;DHT22;2539;52.568;13.364;2023-07-30T08:10:54;21.40;99.90
5041;DHT22;2539;52.568;13.364;2023-07-30T08:13:20;21.40;99.90
5041;DHT22;2539;52.568;13.364;2023-07-30T08:15:47;21.40;99.90
5041;DHT22;2539;52.568;13.364;2023-07-30T08:18:13;21.00;99.90
5041;DHT22;2539;52.568;13.364;2023-07-30T08:20:39;21.00;99.90
5041;DHT22;2539;52.568;13.364;2023-07-30T08:23:06;21.20;99.90
5041;DHT22;2539;52.568;13.364;2023-07-30T08:25:32;21.50;99.90
5041;DHT22;2539;52.568;13.364;2023-07-30T08:27:59;21.30;99.90
5041;DHT22;2539;52.568;13.364;2023-07-30T08:30:25;21.00;99.90
5041;DHT22;2539;52.568;13.364;2023-07-30T08:32:51;20.90;99.90
5041;DHT22;2539;52.568;13.364;2023-07-30T08:35:18;20.70;99.90
5041;DHT22;2539;52.568;13.364;2023-07-30T08:37:44;20.40;99.90
5041;DHT22;2539;52.568;13.364;2023-07-30T08:40:11;20.40;99.90
5041;DHT22;2539;52.568;13.364;2023-07-30T08:42:37;20.30;99.90
5041;DHT22;2539;52.568;13.364;2023-07-30T08:45:06;20.50;99.90
5041;DHT22;2539;52.568;13.364;2023-07-30T08:47:34;20.80;99.90
5041;DHT22;2539;52.568;13.364;2023-07-30T08:50:00;20.90;99.90
5041;DHT22;2539;52.568;13.364;2023-07-30T08:52:28;20.90;99.90
5041;DHT22;2539;52.568;13.364;2023-07-30T08:54:56;20.80;99.90
5041;DHT22;2539;52.568;13.364;2023-07-30T08:57:24;21.20;99.90
5041;DHT22;2539;52.568;13.364;2023-07-30T09:00:03;21.50;99.90
5041;DHT22;2539;52.568;13.364;2023-07-30T09:02:36;21.50;99.90
5041;DHT22;2539;52.568;13.364;2023-07-30T09:05:04;21.30;99.90
5041;DHT22;2539;52.568;13.364;2023-07-30T09:07:30;21.30;99.90
5041;DHT22;2539;52.568;13.364;2023-07-30T09:09:57;21.30;99.90
5041;DHT22;2539;52.568;13.364;2023-07-30T09:12:29;21.30;99.90
5041;DHT22;2539;52.568;13.364;2023-07-30T09:14:55;21.60;99.90
5041;DHT22;2539;52.568;13.364;2023-07-30T09:17:21;21.70;99.90
5041;DHT22;2539;52.568;13.364;2023-07-30T09:19:48;21.60;99.90
5041;DHT22;2539;52.568;13.364;2023-07-30T09:22:30;21.60;99.90
5041;DHT22;2539;52.568;13.364;2023-07-30T09:25:02;21.90;99.90
5041;DHT22;2539;52.568;13.364;2023-07-30T09:27:31;22.00;99.90
5041;DHT22;2539;52.568;13.364;2023-07-30T09:29:58;22.30;99.90
5041;DHT22;2539;52.568;13.364;2023-07-30T09:32:32;22.30;99.90
5041;DHT22;2539;52.568;13.364;2023-07-30T09:35:08;22.70;99.90
5041;DHT22;2539;52.568;13.364;2023-07-30T09:37:40;23.10;99.90
5041;DHT22;2539;52.568;13.364;2023-07-30T09:40:08;22.90;99.90
5041;DHT22;2539;52.568;13.364;2023-07-30T09:42:36;23.10;99.90
5041;DHT22;2539;52.568;13.364;2023-07-30T09:45:23;22.90;99.90
5041;DHT22;2539;52.568;13.364;2023-07-30T09:47:51;23.10;99.90
5041;DHT22;2539;52.568;13.364;2023-07-30T09:50:18;23.50;99.90
5041;DHT22;2539;52.568;13.364;2023-07-30T09:52:45;24.00;99.90
5041;DHT22;2539;52.568;13.364;2023-07-30T09:55:12;23.60;99.90
5041;DHT22;2539;52.568;13.364;2023-07-30T09:57:38;23.90;99.90
5041;DHT22;2539;52.568;13.364;2023-07-30T10:00:06;24.10;99.90
5041;DHT22;2539;52.568;13.364;2023-07-30T10:02:39;24.10;99.90
5041;DHT22;2539;52.568;13.364;2023-07-30T10:05:14;24.30;99.90
5041;DHT22;2539;52.568;13.364;2023-07-30T10:07:47;24.60;99.90
5041;DHT22;2539;52.568;13.364;2023-07-30T10:10:15;24.70;99.90
5041;DHT22;2539;52.568;13.364;2023-07-30T10:12:43;24.90;99.90
5041;DHT22;2539;52.568;13.364;2023-07-30T10:15:09;24.90;99.90
5041;DHT22;2539;52.568;13.364;2023-07-30T10:17:36;24.10;99.90
5041;DHT22;2539;52.568;13.364;2023-07-30T10:20:26;23.60;99.90
5041;DHT22;2539;52.568;13.364;2023-07-30T10:22:54;23.80;99.90
5041;DHT22;2539;52.568;13.364;2023-07-30T10:28:07;23.80;99.90
5041;DHT22;2539;52.568;13.364;2023-07-30T10:30:34;23.80;99.90
5041;DHT22;2539;52.568;13.364;2023-07-30T10:33:09;24.10;99.90
5041;DHT22;2539;52.568;13.364;2023-07-30T10:35:40;24.00;99.90
5041;DHT22;2539;52.568;13.364;2023-07-30T10:38:29;24.30;99.90
5041;DHT22;2539;52.568;13.364;2023-07-30T10:43:48;23.60;99.90
5041;DHT22;2539;52.568;13.364;2023-07-30T10:46:17;23.80;99.90
5041;DHT22;2539;52.568;13.364;2023-07-30T10:48:45;23.90;99.90
5041;DHT22;2539;52.568;13.364;2023-07-30T10:51:14;24.10;99.90
5041;DHT22;2539;52.568;13.364;2023-07-30T10:53:45;24.20;99.90
5041;DHT22;2539;52.568;13.364;2023-07-30T10:56:12;24.30;99.90
5041;DHT22;2539;52.568;13.364;2023-07-30T10:58:39;24.50;99.90
5041;DHT22;2539;52.568;13.364;2023-07-30T11:01:07;24.90;99.90
5041;DHT22;2539;52.568;13.364;2023-07-30T11:03:34;24.80;99.90
5041;DHT22;2539;52.568;13.364;2023-07-30T11:06:01;24.90;99.90
5041;DHT22;2539;52.568;13.364;2023-07-30T11:08:39;25.10;99.90
5041;DHT22;2539;52.568;13.364;2023-07-30T11:11:07;24.90;99.90
5041;DHT22;2539;52.568;13.364;2023-07-30T11:13:41;24.50;99.90
5041;DHT22;2539;52.568;13.364;2023-07-30T11:16:09;24.40;99.90
5041;DHT22;2539;52.568;13.364;2023-07-30T11:18:39;24.10;99.90
5041;DHT22;2539;52.568;13.364;2023-07-30T11:21:10;23.90;99.90
5041;DHT22;2539;52.568;13.364;2023-07-30T11:23:38;23.60;99.90
5041;DHT22;2539;52.568;13.364;2023-07-30T11:26:06;24.10;99.90
5041;DHT22;2539;52.568;13.364;2023-07-30T11:28:37;24.50;99.90
5041;DHT22;2539;52.568;13.364;2023-07-30T11:31:18;24.70;99.90
5041;DHT22;2539;52.568;13.364;2023-07-30T11:33:48;24.40;99.90
5041;DHT22;2539;52.568;13.364;2023-07-30T11:36:21;24.20;99.90
5041;DHT22;2539;52.568;13.364;2023-07-30T11:38:48;24.80;99.90
5041;DHT22;2539;52.568;13.364;2023-07-30T11:41:15;24.50;99.90
5041;DHT22;2539;52.568;13.364;2023-07-30T11:43:43;24.30;99.90
5041;DHT22;2539;52.568;13.364;2023-07-30T11:46:15;24.60;99.90
5041;DHT22;2539;52.568;13.364;2023-07-30T11:48:44;24.90;99.90
5041;DHT22;2539;52.568;13.364;2023-07-30T11:51:25;25.10;99.90
5041;DHT22;2539;52.568;13.364;2023-07-30T11:53:59;24.30;99.90
5041;DHT22;2539;52.568;13.364;2023-07-30T11:56:30;24.40;99.90
5041;DHT22;2539;52.568;13.364;2023-07-30T11:58:57;24.60;99.90
5041;DHT22;2539;52.568;13.364;2023-07-30T12:01:26;24.60;99.90
5041;DHT22;2539;52.568;13.364;2023-07-30T12:03:59;24.70;99.90
5041;DHT22;2539;52.568;13.364;2023-07-30T12:06:49;24.90;99.90
5041;DHT22;2539;52.568;13.364;2023-07-30T12:09:23;24.70;99.40
5041;DHT22;2539;52.568;13.364;2023-07-30T12:14:19;24.20;99.30
5041;DHT22;2539;52.568;13.364;2023-07-30T12:16:46;24.40;99.00
5041;DHT22;2539;52.568;13.364;2023-07-30T12:19:12;24.20;99.20
5041;DHT22;2539;52.568;13.364;2023-07-30T12:21:38;24.40;99.30
5041;DHT22;2539;52.568;13.364;2023-07-30T12:24:04;24.60;99.50
5041;DHT22;2539;52.568;13.364;2023-07-30T12:26:31;24.90;99.30
5041;DHT22;2539;52.568;13.364;2023-07-30T12:28:57;25.00;99.20
5041;DHT22;2539;52.568;13.364;2023-07-30T12:31:23;25.00;98.90
5041;DHT22;2539;52.568;13.364;2023-07-30T12:33:50;25.10;99.10
5041;DHT22;2539;52.568;13.364;2023-07-30T12:36:16;25.30;99.20
5041;DHT22;2539;52.568;13.364;2023-07-30T12:38:42;25.20;98.80
5041;DHT22;2539;52.568;13.364;2023-07-30T12:41:08;25.40;99.20
5041;DHT22;2539;52.568;13.364;2023-07-30T12:43:34;25.40;99.30
5041;DHT22;2539;52.568;13.364;2023-07-30T12:46:01;25.50;99.40
5041;DHT22;2539;52.568;13.364;2023-07-30T12:48:27;25.50;98.80
5041;DHT22;2539;52.568;13.364;2023-07-30T12:50:53;25.00;98.90
5041;DHT22;2539;52.568;13.364;2023-07-30T12:53:20;25.20;99.60
5041;DHT22;2539;52.568;13.364;2023-07-30T12:55:46;25.40;99.50
5041;DHT22;2539;52.568;13.364;2023-07-30T12:58:11;25.40;98.90
5041;DHT22;2539;52.568;13.364;2023-07-30T13:00:37;25.30;99.70
5041;DHT22;2539;52.568;13.364;2023-07-30T13:03:05;25.40;99.40
5041;DHT22;2539;52.568;13.364;2023-07-30T13:05:32;25.40;99.10
5041;DHT22;2539;52.568;13.364;2023-07-30T13:07:58;25.40;98.90
5041;DHT22;2539;52.568;13.364;2023-07-30T13:10:24;25.40;99.10
5041;DHT22;2539;52.568;13.364;2023-07-30T13:12:50;25.20;99.10
5041;DHT22;2539;52.568;13.364;2023-07-30T13:15:16;25.30;98.90
5041;DHT22;2539;52.568;13.364;2023-07-30T13:17:43;25.30;98.70
5041;DHT22;2539;52.568;13.364;2023-07-30T13:20:09;25.50;98.30
5041;DHT22;2539;52.568;13.364;2023-07-30T13:22:36;25.90;98.20
5041;DHT22;2539;52.568;13.364;2023-07-30T13:25:02;25.90;97.90
5041;DHT22;2539;52.568;13.364;2023-07-30T13:27:29;26.10;98.10
5041;DHT22;2539;52.568;13.364;2023-07-30T13:29:55;26.20;97.30
5041;DHT22;2539;52.568;13.364;2023-07-30T13:32:21;25.90;97.00
5041;DHT22;2539;52.568;13.364;2023-07-30T13:34:47;25.20;97.10
5041;DHT22;2539;52.568;13.364;2023-07-30T13:37:14;25.20;98.10
5041;DHT22;2539;52.568;13.364;2023-07-30T13:39:40;25.30;97.70
5041;DHT22;2539;52.568;13.364;2023-07-30T13:42:06;25.30;97.20
5041;DHT22;2539;52.568;13.364;2023-07-30T13:44:32;25.40;97.40
5041;DHT22;2539;52.568;13.364;2023-07-30T13:46:59;25.50;97.40
5041;DHT22;2539;52.568;13.364;2023-07-30T13:49:25;25.40;97.30
5041;DHT22;2539;52.568;13.364;2023-07-30T13:51:51;25.30;96.70
5041;DHT22;2539;52.568;13.364;2023-07-30T13:54:17;25.50;96.70
5041;DHT22;2539;52.568;13.364;2023-07-30T13:56:44;25.20;95.90
5041;DHT22;2539;52.568;13.364;2023-07-30T13:59:10;25.00;96.40
5041;DHT22;2539;52.568;13.364;2023-07-30T14:01:36;24.70;95.60
5041;DHT22;2539;52.568;13.364;2023-07-30T14:04:03;24.70;96.50
5041;DHT22;2539;52.568;13.364;2023-07-30T14:06:29;24.60;96.40
5041;DHT22;2539;52.568;13.364;2023-07-30T14:08:57;24.60;96.40
5041;DHT22;2539;52.568;13.364;2023-07-30T14:11:26;24.60;96.50
5041;DHT22;2539;52.568;13.364;2023-07-30T14:13:53;24.40;96.20
5041;DHT22;2539;52.568;13.364;2023-07-30T14:16:20;24.30;96.60
5041;DHT22;2539;52.568;13.364;2023-07-30T14:18:46;24.20;96.80
5041;DHT22;2539;52.568;13.364;2023-07-30T14:21:12;24.10;96.60
5041;DHT22;2539;52.568;13.364;2023-07-30T14:23:39;24.00;97.20
5041;DHT22;2539;52.568;13.364;2023-07-30T14:26:05;23.90;97.30
5041;DHT22;2539;52.568;13.364;2023-07-30T14:28:32;24.00;98.20
5041;DHT22;2539;52.568;13.364;2023-07-30T14:30:59;24.30;97.70
5041;DHT22;2539;52.568;13.364;2023-07-30T14:33:25;24.10;97.70
5041;DHT22;2539;52.568;13.364;2023-07-30T14:35:52;24.10;97.70
5041;DHT22;2539;52.568;13.364;2023-07-30T14:38:18;24.00;98.20
5041;DHT22;2539;52.568;13.364;2023-07-30T14:40:44;23.60;98.70
5041;DHT22;2539;52.568;13.364;2023-07-30T14:43:11;23.00;98.80
5041;DHT22;2539;52.568;13.364;2023-07-30T14:45:37;23.00;99.20
5041;DHT22;2539;52.568;13.364;2023-07-30T14:48:03;22.90;98.90
5041;DHT22;2539;52.568;13.364;2023-07-30T14:50:30;22.90;99.40
5041;DHT22;2539;52.568;13.364;2023-07-30T14:52:56;23.00;99.70
5041;DHT22;2539;52.568;13.364;2023-07-30T14:55:23;23.00;99.80
5041;DHT22;2539;52.568;13.364;2023-07-30T14:57:49;23.10;99.80
5041;DHT22;2539;52.568;13.364;2023-07-30T15:00:15;23.00;99.90
5041;DHT22;2539;52.568;13.364;2023-07-30T15:02:43;22.70;99.90
5041;DHT22;2539;52.568;13.364;2023-07-30T15:05:09;22.50;99.90
5041;DHT22;2539;52.568;13.364;2023-07-30T15:07:35;22.30;99.90
5041;DHT22;2539;52.568;13.364;2023-07-30T15:10:01;22.00;99.90
5041;DHT22;2539;52.568;13.364;2023-07-30T15:12:28;21.90;99.90
5041;DHT22;2539;52.568;13.364;2023-07-30T15:14:54;21.80;99.90
5041;DHT22;2539;52.568;13.364;2023-07-30T15:17:21;21.80;99.90
5041;DHT22;2539;52.568;13.364;2023-07-30T15:19:47;21.80;99.90
5041;DHT22;2539;52.568;13.364;2023-07-30T15:22:14;22.00;99.90
5041;DHT22;2539;52.568;13.364;2023-07-30T15:24:40;22.30;99.90
5041;DHT22;2539;52.568;13.364;2023-07-30T15:27:06;22.50;99.90
5041;DHT22;2539;52.568;13.364;2023-07-30T15:29:33;22.80;99.90
5041;DHT22;2539;52.568;13.364;2023-07-30T15:32:02;23.00;99.90
5041;DHT22;2539;52.568;13.364;2023-07-30T15:34:27;23.00;99.90
5041;DHT22;2539;52.568;13.364;2023-07-30T15:36:53;23.00;99.90
5041;DHT22;2539;52.568;13.364;2023-07-30T15:39:22;22.80;99.90
5041;DHT22;2539;52.568;13.364;2023-07-30T15:41:47;22.80;99.90
5041;DHT22;2539;52.568;13.364;2023-07-30T15:44:13;22.60;99.90
5041;DHT22;2539;52.568;13.364;2023-07-30T15:46:40;22.60;99.90
5041;DHT22;2539;52.568;13.364;2023-07-30T15:49:09;22.50;99.90
5041;DHT22;2539;52.568;13.364;2023-07-30T15:51:35;22.70;99.90
5041;DHT22;2539;52.568;13.364;2023-07-30T15:54:02;23.20;99.90